Time;durP1;ratioP1;P1;durP2;ratioP2;P2;SDS_P1;SDS_P2;PMS_P1;PMS_P2;Temp;Humidity;BMP_temperature;BMP_pressure;BME280_temperature;BME280_humidity;BME280_pressure;Samples;Min_cycle;Max_cycle;Signal;HPM_P1;HPM_P2
2022/05/12 00:00:44;;;;;;;;;;;18.90;89.70;;;;;;5076963;28;20006;-72
2022/05/12 00:03:17;;;;;;;;;;;18.80;90.00;;;;;;5061549;28;20065;-72
2022/05/12 00:05:48;;;;;;;;;;;18.80;90.00;;;;;;5083367;28;19925;-72
2022/05/12 00:08:20;;;;;;;;;;;18.80;90.10;;;;;;5051714;28;19932;-72
2022/05/12 00:10:52;;;;;;;;;;;18.80;90.20;;;;;;5071492;28;19924;-72
2022/05/12 00:13:23;;;;;;;;;;;18.70;90.40;;;;;;5061860;28;20036;-72
2022/05/12 00:15:55;;;;;;;;;;;18.80;90.20;;;;;;5084982;28;19931;-73
2022/05/12 00:18:27;;;;;;;;;;;18.70;90.20;;;;;;5071634;28;19931;-72
2022/05/12 00:20:58;;;;;;;;;;;18.80;89.90;;;;;;5062623;28;19924;-72
2022/05/12 00:23:30;;;;;;;;;;;18.80;89.40;;;;;;5070526;28;19925;-72
2022/05/12 00:25:57;;;;;;;;;;;18.80;89.20;;;;;;5080984;28;19924;-72
2022/05/12 00:28:28;;;;;;;;;;;18.80;89.70;;;;;;5088334;28;19947;-72
2022/05/12 00:31:00;;;;;;;;;;;18.80;89.10;;;;;;5064054;28;20019;-72
2022/05/12 00:33:31;;;;;;;;;;;18.80;88.30;;;;;;5065681;28;20299;-72
2022/05/12 00:36:03;;;;;;;;;;;18.90;88.20;;;;;;5070715;28;20023;-72
2022/05/12 00:38:35;;;;;;;;;;;18.90;87.80;;;;;;5070135;28;19928;-72
2022/05/12 00:41:06;;;;;;;;;;;19.00;87.40;;;;;;5083207;28;19924;-72
2022/05/12 00:43:41;;;;;;;;;;;19.00;87.20;;;;;;5080475;28;19935;-72
2022/05/12 00:46:17;;;;;;;;;;;19.00;86.50;;;;;;5055670;28;19924;-72
2022/05/12 00:48:49;;;;;;;;;;;19.10;86.40;;;;;;5070740;28;19933;-72
2022/05/12 00:51:31;;;;;;;;;;;19.20;86.00;;;;;;5061247;28;20331;-72
2022/05/12 00:54:04;;;;;;;;;;;19.20;85.90;;;;;;5083275;28;19928;-72
2022/05/12 00:56:36;;;;;;;;;;;19.20;85.70;;;;;;5086409;28;19924;-73
2022/05/12 00:59:10;;;;;;;;;;;19.30;85.90;;;;;;5053487;28;19931;-72
2022/05/12 01:01:41;;;;;;;;;;;19.30;86.00;;;;;;5086570;28;19932;-73
2022/05/12 01:04:13;;;;;;;;;;;19.30;85.90;;;;;;5090804;28;19928;-72
2022/05/12 01:06:45;;;;;;;;;;;19.30;86.30;;;;;;5087991;28;19935;-71
2022/05/12 01:09:18;;;;;;;;;;;19.30;86.20;;;;;;5069004;28;20411;-72
2022/05/12 01:11:50;;;;;;;;;;;19.30;86.40;;;;;;5056537;28;20464;-71
2022/05/12 01:14:21;;;;;;;;;;;19.30;86.60;;;;;;5079532;28;20412;-72
2022/05/12 01:16:54;;;;;;;;;;;19.30;86.60;;;;;;5091666;28;20030;-72
2022/05/12 01:19:28;;;;;;;;;;;19.30;86.50;;;;;;5097721;28;19924;-71
2022/05/12 01:22:01;;;;;;;;;;;19.30;86.70;;;;;;5072587;28;19923;-72
2022/05/12 01:24:37;;;;;;;;;;;19.30;87.00;;;;;;5086143;28;19924;-72
2022/05/12 01:27:22;;;;;;;;;;;19.30;87.20;;;;;;5088178;28;20015;-73
2022/05/12 01:29:55;;;;;;;;;;;19.20;87.40;;;;;;5098881;28;20023;-72
2022/05/12 01:32:28;;;;;;;;;;;19.20;87.80;;;;;;5073533;28;19931;-72
2022/05/12 01:34:59;;;;;;;;;;;19.20;87.70;;;;;;5063431;28;20002;-72
2022/05/12 01:37:31;;;;;;;;;;;19.20;87.80;;;;;;5090564;28;19924;-72
2022/05/12 01:40:03;;;;;;;;;;;19.10;87.80;;;;;;5091371;28;20018;-72
2022/05/12 01:42:35;;;;;;;;;;;19.10;87.60;;;;;;5074592;28;19924;-73
2022/05/12 01:45:07;;;;;;;;;;;19.20;87.40;;;;;;5079349;28;20358;-72
2022/05/12 01:47:39;;;;;;;;;;;19.10;87.20;;;;;;5083383;28;19932;-73
2022/05/12 01:50:13;;;;;;;;;;;19.10;87.60;;;;;;5082050;28;19930;-72
2022/05/12 01:52:44;;;;;;;;;;;19.10;87.70;;;;;;5063834;28;19928;-72
2022/05/12 01:55:18;;;;;;;;;;;19.00;88.30;;;;;;5088358;28;19925;-72
2022/05/12 01:57:50;;;;;;;;;;;19.00;88.30;;;;;;5083769;28;19924;-72
2022/05/12 02:00:23;;;;;;;;;;;18.90;88.40;;;;;;5055246;28;19924;-72
2022/05/12 02:02:56;;;;;;;;;;;18.90;88.30;;;;;;5072903;28;19935;-73
2022/05/12 02:05:29;;;;;;;;;;;18.90;88.40;;;;;;5073260;28;20269;-72
2022/05/12 02:08:01;;;;;;;;;;;18.90;88.10;;;;;;5091168;28;19924;-72
2022/05/12 02:10:37;;;;;;;;;;;18.90;88.10;;;;;;5065958;28;20360;-72
2022/05/12 02:13:11;;;;;;;;;;;18.90;88.20;;;;;;5095102;28;19924;-72
2022/05/12 02:15:42;;;;;;;;;;;18.80;88.30;;;;;;5086282;28;20403;-72
2022/05/12 02:18:17;;;;;;;;;;;18.90;88.10;;;;;;5063361;28;19983;-72
2022/05/12 02:20:49;;;;;;;;;;;18.80;88.50;;;;;;5100746;28;20323;-72
2022/05/12 02:23:21;;;;;;;;;;;18.80;88.60;;;;;;5065910;28;19925;-72
2022/05/12 02:25:52;;;;;;;;;;;18.70;89.20;;;;;;5087157;28;19927;-73
2022/05/12 02:28:19;;;;;;;;;;;18.60;89.40;;;;;;5069773;28;20304;-72
2022/05/12 02:30:51;;;;;;;;;;;18.60;89.40;;;;;;5075124;28;19928;-72
2022/05/12 02:33:22;;;;;;;;;;;18.60;89.40;;;;;;5067579;28;19928;-72
2022/05/12 02:35:54;;;;;;;;;;;18.50;89.60;;;;;;5069615;28;19932;-72
2022/05/12 02:38:25;;;;;;;;;;;18.60;89.60;;;;;;5087226;28;20385;-72
2022/05/12 02:40:57;;;;;;;;;;;18.50;89.30;;;;;;5063856;28;19928;-72
2022/05/12 02:43:31;;;;;;;;;;;18.50;89.20;;;;;;5080115;28;20023;-72
2022/05/12 02:46:04;;;;;;;;;;;18.60;89.70;;;;;;5090405;28;19928;-72
2022/05/12 02:48:37;;;;;;;;;;;18.60;89.40;;;;;;5079373;28;19932;-72
2022/05/12 02:51:09;;;;;;;;;;;18.60;89.50;;;;;;5082138;28;19935;-72
2022/05/12 02:53:41;;;;;;;;;;;18.60;89.30;;;;;;5057611;28;20380;-72
2022/05/12 02:56:13;;;;;;;;;;;18.60;89.20;;;;;;5090145;28;19932;-72
2022/05/12 02:58:44;;;;;;;;;;;18.60;89.40;;;;;;5084845;28;19951;-72
2022/05/12 03:01:16;;;;;;;;;;;18.60;89.50;;;;;;5070953;28;19924;-72
2022/05/12 03:03:47;;;;;;;;;;;18.50;90.00;;;;;;5090746;28;20290;-72
2022/05/12 03:06:19;;;;;;;;;;;18.50;89.60;;;;;;5077729;28;20356;-72
2022/05/12 03:08:51;;;;;;;;;;;18.50;90.20;;;;;;5084812;28;19924;-72
2022/05/12 03:11:22;;;;;;;;;;;18.50;90.00;;;;;;5083175;28;19935;-72
2022/05/12 03:13:54;;;;;;;;;;;18.50;90.00;;;;;;5086705;28;19932;-72
2022/05/12 03:16:21;;;;;;;;;;;18.50;90.00;;;;;;5086767;28;20296;-72
2022/05/12 03:18:53;;;;;;;;;;;18.50;90.00;;;;;;5081484;28;19927;-72
2022/05/12 03:21:26;;;;;;;;;;;18.50;89.80;;;;;;5063189;28;19934;-72
2022/05/12 03:23:58;;;;;;;;;;;18.50;89.90;;;;;;5063013;28;20366;-72
2022/05/12 03:26:30;;;;;;;;;;;18.50;90.00;;;;;;5089289;28;20093;-72
2022/05/12 03:29:01;;;;;;;;;;;18.50;89.80;;;;;;5078773;28;19935;-72
2022/05/12 03:31:33;;;;;;;;;;;18.50;89.50;;;;;;5077714;28;19924;-72
2022/05/12 03:34:06;;;;;;;;;;;18.50;89.30;;;;;;5079564;28;19929;-72
2022/05/12 03:36:39;;;;;;;;;;;18.50;89.30;;;;;;5072591;28;19931;-72
2022/05/12 03:39:10;;;;;;;;;;;18.60;89.10;;;;;;5074096;28;20305;-72
2022/05/12 03:41:42;;;;;;;;;;;18.60;88.50;;;;;;5051961;28;19931;-72
2022/05/12 03:47:04;;;;;;;;;;;18.60;88.80;;;;;;5084596;28;20465;-72
2022/05/12 03:49:35;;;;;;;;;;;18.60;88.50;;;;;;5078789;28;20024;-72
2022/05/12 03:52:07;;;;;;;;;;;18.60;88.80;;;;;;5064966;28;19924;-72
2022/05/12 03:54:40;;;;;;;;;;;18.60;88.30;;;;;;5070745;28;20399;-72
2022/05/12 03:57:12;;;;;;;;;;;18.60;87.90;;;;;;5087560;28;19924;-72
2022/05/12 03:59:45;;;;;;;;;;;18.60;87.70;;;;;;5066784;28;19924;-71
2022/05/12 04:02:17;;;;;;;;;;;18.60;87.80;;;;;;5067383;28;19958;-72
2022/05/12 04:04:49;;;;;;;;;;;18.60;88.00;;;;;;5065426;28;19985;-72
2022/05/12 04:07:21;;;;;;;;;;;18.60;88.40;;;;;;5078809;28;20392;-72
2022/05/12 04:09:53;;;;;;;;;;;18.60;87.50;;;;;;5085817;28;19924;-72
2022/05/12 04:12:24;;;;;;;;;;;18.60;87.80;;;;;;5079677;28;19931;-72
2022/05/12 04:14:56;;;;;;;;;;;18.60;87.10;;;;;;5085241;28;19931;-72
2022/05/12 04:17:27;;;;;;;;;;;18.60;87.00;;;;;;5081556;28;20360;-72
2022/05/12 04:19:54;;;;;;;;;;;18.60;87.20;;;;;;5086422;28;20483;-71
2022/05/12 04:22:26;;;;;;;;;;;18.60;86.90;;;;;;5063523;28;19967;-72
2022/05/12 04:24:54;;;;;;;;;;;18.60;87.30;;;;;;5063471;28;19963;-71
2022/05/12 04:27:26;;;;;;;;;;;18.60;86.90;;;;;;5087668;28;19924;-71
2022/05/12 04:29:58;;;;;;;;;;;18.60;87.10;;;;;;5056079;28;19928;-71
2022/05/12 04:32:30;;;;;;;;;;;18.60;86.80;;;;;;5085453;28;20007;-71
2022/05/12 04:35:12;;;;;;;;;;;18.60;87.40;;;;;;5084117;28;20257;-72
2022/05/12 04:37:45;;;;;;;;;;;18.60;87.90;;;;;;5080189;28;19929;-72
2022/05/12 04:40:21;;;;;;;;;;;18.60;86.90;;;;;;5085496;28;19927;-71
2022/05/12 04:42:53;;;;;;;;;;;18.50;87.50;;;;;;5083678;28;19931;-72
2022/05/12 04:45:26;;;;;;;;;;;18.50;87.10;;;;;;5077913;28;19972;-72
2022/05/12 04:47:53;;;;;;;;;;;18.50;87.30;;;;;;5086868;28;19928;-73
2022/05/12 04:50:30;;;;;;;;;;;18.60;86.80;;;;;;5080438;28;20409;-72
2022/05/12 04:53:02;;;;;;;;;;;18.60;87.20;;;;;;5087939;28;19931;-72
2022/05/12 04:55:34;;;;;;;;;;;18.60;87.10;;;;;;5082265;28;20299;-73
2022/05/12 04:58:05;;;;;;;;;;;18.50;87.50;;;;;;5108927;27;20392;-72
2022/05/12 05:00:40;;;;;;;;;;;18.50;88.40;;;;;;5115374;27;19928;-72
2022/05/12 05:03:12;;;;;;;;;;;18.50;88.40;;;;;;5090287;28;19924;-73
2022/05/12 05:05:44;;;;;;;;;;;18.40;88.20;;;;;;5087391;28;19924;-73
2022/05/12 05:08:17;;;;;;;;;;;18.40;88.60;;;;;;5100226;28;19935;-72
2022/05/12 05:10:49;;;;;;;;;;;18.40;89.50;;;;;;5085658;28;19946;-73
2022/05/12 05:13:18;;;;;;;;;;;18.40;89.60;;;;;;5076406;28;19928;-72
2022/05/12 05:15:50;;;;;;;;;;;18.40;89.20;;;;;;5085572;28;19958;-72
2022/05/12 05:18:22;;;;;;;;;;;18.50;89.50;;;;;;5080433;28;19932;-72
2022/05/12 05:20:54;;;;;;;;;;;18.40;89.80;;;;;;5079078;28;19928;-72
2022/05/12 05:23:26;;;;;;;;;;;18.40;89.90;;;;;;5079682;28;19932;-72
2022/05/12 05:25:53;;;;;;;;;;;18.40;90.20;;;;;;5088950;28;19935;-72
2022/05/12 05:28:25;;;;;;;;;;;18.40;89.80;;;;;;5089545;28;19924;-72
2022/05/12 05:30:57;;;;;;;;;;;18.40;90.20;;;;;;5086620;28;19928;-72
2022/05/12 05:33:28;;;;;;;;;;;18.50;90.10;;;;;;5077774;28;20059;-75
2022/05/12 05:36:00;;;;;;;;;;;18.50;90.00;;;;;;5088960;28;19924;-73
2022/05/12 05:38:32;;;;;;;;;;;18.60;89.90;;;;;;5073730;28;19928;-72
2022/05/12 05:41:03;;;;;;;;;;;18.60;90.10;;;;;;5090908;28;19928;-72
2022/05/12 05:43:35;;;;;;;;;;;18.70;89.40;;;;;;5089845;28;19935;-72
2022/05/12 05:46:07;;;;;;;;;;;18.70;89.40;;;;;;5060998;28;19951;-72
2022/05/12 05:48:34;;;;;;;;;;;18.80;89.60;;;;;;5075921;28;19928;-72
2022/05/12 05:53:51;;;;;;;;;;;18.90;89.50;;;;;;5076861;27;20308;-72
2022/05/12 05:56:22;;;;;;;;;;;19.00;88.70;;;;;;5081317;28;19932;-72
2022/05/12 05:58:54;;;;;;;;;;;19.10;90.00;;;;;;5084686;28;19924;-72
2022/05/12 06:01:26;;;;;;;;;;;19.10;88.60;;;;;;5080721;28;19928;-72
2022/05/12 06:03:58;;;;;;;;;;;19.10;89.00;;;;;;5079234;28;19943;-72
2022/05/12 06:06:29;;;;;;;;;;;19.10;88.80;;;;;;5072420;28;20736;-72
2022/05/12 06:09:02;;;;;;;;;;;19.00;88.00;;;;;;5075410;28;20308;-73
2022/05/12 06:11:34;;;;;;;;;;;19.00;89.60;;;;;;5088365;28;20381;-72
2022/05/12 06:14:06;;;;;;;;;;;18.90;90.10;;;;;;5074382;28;20136;-72
2022/05/12 06:16:38;;;;;;;;;;;18.90;90.50;;;;;;5063299;27;20404;-72
2022/05/12 06:19:10;;;;;;;;;;;18.90;90.30;;;;;;5050217;28;19925;-72
2022/05/12 06:21:42;;;;;;;;;;;18.90;90.60;;;;;;5055783;28;19932;-72
2022/05/12 06:24:13;;;;;;;;;;;19.10;90.80;;;;;;5049350;28;19931;-72
2022/05/12 06:26:45;;;;;;;;;;;19.20;90.70;;;;;;5054136;28;19929;-72
2022/05/12 06:29:17;;;;;;;;;;;19.20;90.30;;;;;;5083700;28;19932;-72
2022/05/12 06:31:49;;;;;;;;;;;19.30;90.00;;;;;;5050973;28;19928;-73
2022/05/12 06:34:21;;;;;;;;;;;19.40;90.00;;;;;;5034066;28;19928;-72
2022/05/12 06:36:48;;;;;;;;;;;19.30;89.20;;;;;;5047201;28;19929;-72
2022/05/12 06:39:20;;;;;;;;;;;19.30;90.40;;;;;;5050725;28;19936;-72
2022/05/12 06:41:46;;;;;;;;;;;19.40;90.20;;;;;;5048438;28;19932;-72
2022/05/12 06:44:19;;;;;;;;;;;19.40;90.10;;;;;;5047934;28;19928;-72
2022/05/12 06:46:51;;;;;;;;;;;19.50;90.40;;;;;;5052656;28;19929;-72
2022/05/12 06:49:23;;;;;;;;;;;19.60;90.00;;;;;;5049208;28;19924;-72
2022/05/12 06:51:55;;;;;;;;;;;19.70;91.00;;;;;;5045486;28;19925;-72
2022/05/12 06:54:28;;;;;;;;;;;19.90;90.20;;;;;;5049779;28;19933;-72
2022/05/12 06:56:59;;;;;;;;;;;20.00;90.50;;;;;;5049912;28;19932;-72
2022/05/12 06:59:31;;;;;;;;;;;20.10;90.80;;;;;;5051088;28;20348;-73
2022/05/12 07:02:03;;;;;;;;;;;20.20;90.90;;;;;;5045467;28;19925;-72
2022/05/12 07:04:35;;;;;;;;;;;20.30;90.40;;;;;;5039658;28;19932;-73
2022/05/12 07:07:06;;;;;;;;;;;20.40;89.20;;;;;;5050956;28;19931;-72
2022/05/12 07:09:38;;;;;;;;;;;20.30;88.50;;;;;;5045994;28;19935;-73
2022/05/12 07:12:12;;;;;;;;;;;20.30;88.40;;;;;;5051625;28;19924;-72
2022/05/12 07:14:44;;;;;;;;;;;20.40;89.50;;;;;;5049489;28;19924;-72
2022/05/12 07:17:10;;;;;;;;;;;20.50;88.00;;;;;;5054219;28;19929;-72
2022/05/12 07:19:42;;;;;;;;;;;20.50;88.50;;;;;;5048046;28;19947;-72
2022/05/12 07:27:54;;;;;;;;;;;20.90;88.80;;;;;;5044625;28;19936;-72
2022/05/12 07:31:00;;;;;;;;;;;20.90;88.20;;;;;;5048079;28;19931;-72
2022/05/12 07:33:17;;;;;;;;;;;21.10;88.80;;;;;;5036176;28;20651;-73
2022/05/12 07:35:43;;;;;;;;;;;21.00;86.90;;;;;;5043924;28;19948;-72
2022/05/12 07:38:16;;;;;;;;;;;21.20;86.80;;;;;;5046413;28;19936;-72
2022/05/12 07:40:48;;;;;;;;;;;21.20;87.40;;;;;;5050687;28;19933;-72
2022/05/12 07:43:20;;;;;;;;;;;21.20;86.30;;;;;;5048012;28;19936;-72
2022/05/12 07:45:52;;;;;;;;;;;21.20;85.10;;;;;;5050102;28;20565;-72
2022/05/12 07:48:24;;;;;;;;;;;21.20;86.50;;;;;;5049351;28;20435;-72
2022/05/12 07:50:56;;;;;;;;;;;21.20;86.10;;;;;;5047834;28;19952;-73
2022/05/12 07:53:27;;;;;;;;;;;21.20;85.50;;;;;;5041747;28;19932;-72
2022/05/12 07:56:00;;;;;;;;;;;21.30;86.00;;;;;;5043664;28;19940;-73
2022/05/12 07:58:32;;;;;;;;;;;21.40;85.90;;;;;;5046728;28;19932;-72
2022/05/12 08:01:03;;;;;;;;;;;21.50;84.30;;;;;;5039864;28;20417;-72
2022/05/12 08:03:35;;;;;;;;;;;21.50;84.90;;;;;;5042840;28;19925;-73
2022/05/12 08:06:07;;;;;;;;;;;21.40;85.30;;;;;;5051704;28;20409;-72
2022/05/12 08:08:39;;;;;;;;;;;21.50;85.80;;;;;;5050012;28;19928;-72
2022/05/12 08:11:11;;;;;;;;;;;21.50;86.80;;;;;;5046645;28;19936;-72
2022/05/12 08:13:45;;;;;;;;;;;21.50;86.90;;;;;;5061997;28;19936;-72
2022/05/12 08:16:18;;;;;;;;;;;21.60;87.60;;;;;;5045484;28;19928;-73
2022/05/12 08:18:49;;;;;;;;;;;21.70;84.50;;;;;;5037678;28;19937;-72
2022/05/12 08:21:25;;;;;;;;;;;21.70;84.00;;;;;;5043920;28;19925;-72
2022/05/12 08:23:56;;;;;;;;;;;21.80;84.60;;;;;;5043556;28;19936;-72
2022/05/12 08:26:28;;;;;;;;;;;21.80;84.20;;;;;;5047189;28;20582;-73
2022/05/12 08:29:00;;;;;;;;;;;21.80;83.80;;;;;;5048490;28;19932;-72
2022/05/12 08:31:31;;;;;;;;;;;21.80;84.50;;;;;;5052165;28;19929;-72
2022/05/12 08:34:03;;;;;;;;;;;21.80;86.40;;;;;;5048970;28;20310;-72
2022/05/12 08:36:35;;;;;;;;;;;21.90;85.20;;;;;;5053592;28;19928;-73
2022/05/12 08:39:06;;;;;;;;;;;22.00;85.10;;;;;;5046803;28;19978;-72
2022/05/12 08:42:07;;;;;;;;;;;22.10;84.00;;;;;;5047693;28;19929;-73
2022/05/12 08:44:37;;;;;;;;;;;22.10;83.80;;;;;;5049444;28;20277;-72
2022/05/12 08:47:11;;;;;;;;;;;22.20;82.90;;;;;;5054894;28;19940;-73
2022/05/12 08:49:47;;;;;;;;;;;22.30;84.10;;;;;;5046517;28;19932;-73
2022/05/12 08:52:22;;;;;;;;;;;22.30;83.50;;;;;;5053975;28;20406;-73
2022/05/12 08:55:08;;;;;;;;;;;22.40;83.80;;;;;;5044558;28;20043;-72
2022/05/12 08:57:48;;;;;;;;;;;22.50;83.60;;;;;;5053007;28;19937;-73
2022/05/12 09:00:20;;;;;;;;;;;22.40;82.80;;;;;;5047896;28;19933;-72
2022/05/12 09:03:04;;;;;;;;;;;22.30;83.70;;;;;;5051319;28;19931;-72
2022/05/12 09:05:53;;;;;;;;;;;22.10;85.40;;;;;;5046559;28;19952;-72
2022/05/12 09:08:44;;;;;;;;;;;22.10;87.10;;;;;;5046635;28;19929;-72
2022/05/12 09:11:20;;;;;;;;;;;22.10;84.90;;;;;;5050049;28;19929;-72
2022/05/12 09:13:53;;;;;;;;;;;22.30;87.30;;;;;;5046937;28;20550;-72
2022/05/12 09:16:29;;;;;;;;;;;22.50;84.60;;;;;;5053196;28;19928;-73
2022/05/12 09:19:01;;;;;;;;;;;22.60;83.60;;;;;;5049638;28;20281;-72
2022/05/12 09:21:35;;;;;;;;;;;22.70;84.60;;;;;;5053614;28;20375;-72
2022/05/12 09:24:03;;;;;;;;;;;22.90;86.10;;;;;;5048202;28;19929;-72
2022/05/12 09:26:47;;;;;;;;;;;23.00;85.40;;;;;;5055072;28;19928;-72
2022/05/12 09:29:23;;;;;;;;;;;23.10;85.00;;;;;;5045354;28;19925;-72
2022/05/12 09:31:57;;;;;;;;;;;23.30;85.00;;;;;;5048372;28;19952;-72
2022/05/12 09:34:30;;;;;;;;;;;23.20;81.80;;;;;;5046832;28;19924;-72
2022/05/12 09:37:21;;;;;;;;;;;23.30;83.30;;;;;;5051717;28;19925;-72
2022/05/12 09:39:54;;;;;;;;;;;23.40;86.70;;;;;;5048726;28;19928;-72
2022/05/12 09:42:29;;;;;;;;;;;23.60;83.80;;;;;;5049943;28;19936;-72
2022/05/12 09:45:21;;;;;;;;;;;23.80;83.50;;;;;;5044781;28;19933;-72
2022/05/12 09:48:17;;;;;;;;;;;23.70;83.40;;;;;;5049780;28;20297;-74
2022/05/12 09:50:49;;;;;;;;;;;23.70;84.90;;;;;;5045709;28;19935;-73
2022/05/12 09:53:25;;;;;;;;;;;23.50;83.90;;;;;;5049146;28;19962;-73
2022/05/12 09:56:01;;;;;;;;;;;23.30;84.00;;;;;;5047735;28;19936;-73
2022/05/12 09:58:35;;;;;;;;;;;23.20;84.40;;;;;;5045104;28;19936;-73
2022/05/12 10:01:10;;;;;;;;;;;23.30;84.50;;;;;;5045478;28;20313;-72
2022/05/12 10:09:28;;;;;;;;;;;23.00;85.90;;;;;;5045955;28;19929;-72
2022/05/12 10:12:17;;;;;;;;;;;22.90;86.20;;;;;;5045688;28;19929;-73
2022/05/12 10:15:04;;;;;;;;;;;23.20;88.00;;;;;;5045428;28;20398;-72
2022/05/12 10:17:45;;;;;;;;;;;23.40;87.20;;;;;;5045017;28;19939;-72
2022/05/12 10:20:14;;;;;;;;;;;23.40;85.10;;;;;;5056974;28;19935;-73
2022/05/12 10:22:46;;;;;;;;;;;23.50;84.50;;;;;;5044423;28;19936;-73
2022/05/12 10:25:30;;;;;;;;;;;23.60;83.90;;;;;;5054021;28;19932;-72
2022/05/12 10:28:17;;;;;;;;;;;23.60;85.30;;;;;;5048477;28;20006;-73
2022/05/12 10:30:59;;;;;;;;;;;23.70;83.90;;;;;;5045711;28;19928;-73
2022/05/12 10:33:35;;;;;;;;;;;23.70;82.90;;;;;;5043822;28;19929;-73
2022/05/12 10:36:29;;;;;;;;;;;23.70;86.30;;;;;;5052203;28;19933;-73
2022/05/12 10:39:17;;;;;;;;;;;24.00;84.20;;;;;;5047329;28;19929;-72
2022/05/12 10:41:59;;;;;;;;;;;24.20;82.20;;;;;;5047873;28;19929;-73
2022/05/12 10:44:39;;;;;;;;;;;24.30;80.90;;;;;;5055397;28;19936;-73
2022/05/12 10:47:14;;;;;;;;;;;24.20;82.40;;;;;;5047745;28;20620;-73
2022/05/12 10:49:53;;;;;;;;;;;24.20;82.50;;;;;;5045921;28;19978;-72
2022/05/12 10:52:33;;;;;;;;;;;24.10;82.90;;;;;;5048200;28;19932;-72
2022/05/12 10:55:12;;;;;;;;;;;23.90;82.40;;;;;;5049833;28;19936;-73
2022/05/12 10:58:19;;;;;;;;;;;23.90;81.90;;;;;;5048923;28;19936;-73
2022/05/12 11:01:10;;;;;;;;;;;23.70;82.80;;;;;;5029236;28;20301;-72
2022/05/12 11:03:59;;;;;;;;;;;23.60;80.90;;;;;;5038918;28;20407;-72
2022/05/12 11:06:46;;;;;;;;;;;23.80;82.60;;;;;;5070170;28;19925;-72
2022/05/12 11:09:20;;;;;;;;;;;24.10;83.90;;;;;;5038321;28;19929;-72
2022/05/12 11:11:53;;;;;;;;;;;24.50;80.80;;;;;;5038616;28;20305;-72
2022/05/12 11:14:37;;;;;;;;;;;24.60;78.90;;;;;;5046365;28;19925;-73
2022/05/12 11:17:09;;;;;;;;;;;24.70;80.50;;;;;;5048177;28;20023;-72
2022/05/12 11:19:36;;;;;;;;;;;24.80;77.40;;;;;;5045375;28;19925;-72
2022/05/12 11:22:12;;;;;;;;;;;24.90;76.00;;;;;;5042395;28;19939;-72
2022/05/12 11:25:00;;;;;;;;;;;25.00;76.40;;;;;;5040211;28;19929;-72
2022/05/12 11:27:34;;;;;;;;;;;24.90;75.20;;;;;;5041844;28;20411;-72
2022/05/12 11:30:27;;;;;;;;;;;24.80;75.60;;;;;;5048817;28;19943;-73
2022/05/12 11:33:10;;;;;;;;;;;24.70;76.90;;;;;;5050440;28;19932;-72
2022/05/12 11:35:48;;;;;;;;;;;24.70;74.70;;;;;;5061058;28;19936;-73
2022/05/12 11:38:42;;;;;;;;;;;24.80;77.20;;;;;;5063767;28;19960;-73
2022/05/12 11:41:21;;;;;;;;;;;24.80;75.10;;;;;;5051007;28;19925;-73
2022/05/12 11:47:12;;;;;;;;;;;25.20;74.90;;;;;;5053872;28;19932;-73
2022/05/12 11:49:43;;;;;;;;;;;25.20;73.00;;;;;;5049091;28;19979;-73
2022/05/12 11:52:34;;;;;;;;;;;25.60;75.20;;;;;;5044297;28;20390;-73
2022/05/12 11:55:18;;;;;;;;;;;25.70;72.80;;;;;;5036032;28;19936;-73
2022/05/12 11:58:04;;;;;;;;;;;25.70;72.60;;;;;;5052074;28;20420;-73
2022/05/12 12:00:36;;;;;;;;;;;25.80;74.60;;;;;;5047381;28;19928;-73
2022/05/12 12:03:20;;;;;;;;;;;25.90;72.30;;;;;;5045095;28;19929;-73
2022/05/12 12:05:52;;;;;;;;;;;26.00;74.00;;;;;;5042743;28;20390;-73
2022/05/12 12:08:32;;;;;;;;;;;26.30;75.40;;;;;;5045897;28;19929;-73
2022/05/12 12:11:13;;;;;;;;;;;26.40;69.50;;;;;;5044844;28;19929;-73
2022/05/12 12:13:45;;;;;;;;;;;26.00;67.60;;;;;;5039670;28;19929;-73
2022/05/12 12:16:19;;;;;;;;;;;26.10;69.80;;;;;;5051335;28;19924;-73
2022/05/12 12:19:03;;;;;;;;;;;25.90;70.30;;;;;;5044930;28;20397;-75
2022/05/12 12:21:43;;;;;;;;;;;25.90;71.30;;;;;;5046354;28;19925;-73
2022/05/12 12:24:18;;;;;;;;;;;26.10;69.80;;;;;;5042654;28;19928;-73
2022/05/12 12:26:54;;;;;;;;;;;25.60;70.10;;;;;;5046624;28;19935;-73
2022/05/12 12:29:43;;;;;;;;;;;25.50;71.00;;;;;;5044899;28;19936;-73
2022/05/12 12:32:34;;;;;;;;;;;25.60;71.90;;;;;;5047207;28;19924;-73
2022/05/12 12:35:13;;;;;;;;;;;25.60;69.90;;;;;;5045431;28;19929;-73
2022/05/12 12:37:49;;;;;;;;;;;25.90;69.30;;;;;;5049342;28;20389;-73
2022/05/12 12:40:37;;;;;;;;;;;26.10;70.00;;;;;;5049502;28;19931;-72
2022/05/12 12:43:20;;;;;;;;;;;26.20;65.90;;;;;;5044430;28;19995;-73
2022/05/12 12:45:52;;;;;;;;;;;26.30;65.30;;;;;;5046311;28;19925;-73
2022/05/12 12:48:30;;;;;;;;;;;25.90;65.60;;;;;;5050218;28;19935;-73
2022/05/12 12:51:03;;;;;;;;;;;25.90;65.30;;;;;;5046213;28;19925;-73
2022/05/12 12:56:30;;;;;;;;;;;26.20;65.00;;;;;;5043527;28;19928;-73
2022/05/12 12:59:04;;;;;;;;;;;26.30;66.30;;;;;;5076847;28;19925;-73
2022/05/12 13:01:36;;;;;;;;;;;26.20;66.90;;;;;;5038763;28;20204;-73
2022/05/12 13:04:08;;;;;;;;;;;26.10;66.00;;;;;;5039850;28;20312;-73
2022/05/12 13:06:41;;;;;;;;;;;26.20;67.40;;;;;;5044163;28;20277;-73
2022/05/12 13:09:13;;;;;;;;;;;26.20;67.10;;;;;;5044922;28;19951;-73
2022/05/12 13:11:45;;;;;;;;;;;25.90;68.20;;;;;;5062590;28;20313;-73
2022/05/12 13:14:17;;;;;;;;;;;25.70;65.30;;;;;;5041195;28;19924;-73
2022/05/12 13:16:49;;;;;;;;;;;25.60;67.40;;;;;;5051940;28;20378;-73
2022/05/12 13:19:24;;;;;;;;;;;25.80;67.80;;;;;;5073953;28;20019;-73
2022/05/12 13:21:56;;;;;;;;;;;26.00;69.20;;;;;;5067219;28;19928;-73
2022/05/12 13:24:28;;;;;;;;;;;26.00;68.60;;;;;;5063803;28;19933;-73
2022/05/12 13:27:02;;;;;;;;;;;26.30;69.20;;;;;;5067162;28;19931;-73
2022/05/12 13:29:30;;;;;;;;;;;26.50;68.50;;;;;;5067816;28;19933;-73
2022/05/12 13:32:03;;;;;;;;;;;26.40;69.10;;;;;;5064432;28;19935;-73
2022/05/12 13:34:35;;;;;;;;;;;26.50;67.40;;;;;;5086349;28;19936;-73
2022/05/12 13:37:17;;;;;;;;;;;26.60;68.30;;;;;;5072803;28;19925;-73
2022/05/12 13:39:50;;;;;;;;;;;26.60;64.60;;;;;;5062655;28;19939;-73
2022/05/12 13:42:28;;;;;;;;;;;26.50;65.40;;;;;;5095360;27;19925;-73
2022/05/12 13:45:01;;;;;;;;;;;26.20;65.40;;;;;;5071451;28;20499;-73
2022/05/12 13:47:35;;;;;;;;;;;26.10;66.40;;;;;;5065178;28;19928;-73
2022/05/12 13:50:09;;;;;;;;;;;26.20;68.10;;;;;;5068535;28;19925;-73
2022/05/12 13:52:43;;;;;;;;;;;26.30;69.60;;;;;;5060278;28;19929;-73
2022/05/12 13:55:17;;;;;;;;;;;26.50;70.20;;;;;;5064956;28;19936;-73
2022/05/12 13:57:50;;;;;;;;;;;26.50;66.90;;;;;;5065157;28;19925;-73
2022/05/12 14:00:47;;;;;;;;;;;26.50;67.10;;;;;;5066397;28;19929;-73
2022/05/12 14:03:30;;;;;;;;;;;26.50;65.60;;;;;;5064442;28;19935;-74
2022/05/12 14:06:09;;;;;;;;;;;26.20;68.20;;;;;;5072204;28;20010;-73
2022/05/12 14:08:41;;;;;;;;;;;26.00;69.90;;;;;;5082910;28;19924;-73
2022/05/12 14:11:14;;;;;;;;;;;26.10;69.70;;;;;;5065702;28;19939;-73
2022/05/12 14:19:38;;;;;;;;;;;26.40;68.00;;;;;;5079139;28;19924;-73
2022/05/12 14:22:11;;;;;;;;;;;26.30;68.40;;;;;;5059362;28;19924;-73
2022/05/12 14:24:47;;;;;;;;;;;26.10;68.40;;;;;;5068159;28;19968;-73
2022/05/12 14:27:19;;;;;;;;;;;26.20;69.70;;;;;;5070420;28;19927;-73
2022/05/12 14:29:50;;;;;;;;;;;26.30;67.90;;;;;;5068693;28;19929;-73
2022/05/12 14:32:22;;;;;;;;;;;26.20;68.40;;;;;;5061345;28;19925;-73
2022/05/12 14:34:55;;;;;;;;;;;26.30;68.00;;;;;;5062372;28;19932;-73
2022/05/12 14:37:28;;;;;;;;;;;26.40;68.10;;;;;;5066298;28;19964;-73
2022/05/12 14:40:00;;;;;;;;;;;26.50;68.30;;;;;;5060692;28;20397;-73
2022/05/12 14:42:32;;;;;;;;;;;26.60;68.70;;;;;;5063587;28;19967;-73
2022/05/12 14:44:58;;;;;;;;;;;27.00;69.50;;;;;;5060242;28;19928;-73
2022/05/12 14:47:33;;;;;;;;;;;27.20;68.20;;;;;;5079578;28;19928;-73
2022/05/12 14:50:05;;;;;;;;;;;27.30;66.00;;;;;;5063100;28;20430;-73
2022/05/12 14:52:36;;;;;;;;;;;27.30;65.70;;;;;;5061801;28;20301;-73
2022/05/12 14:55:09;;;;;;;;;;;27.40;65.20;;;;;;5067706;28;19925;-73
2022/05/12 14:57:40;;;;;;;;;;;27.40;64.60;;;;;;5066886;28;19928;-74
2022/05/12 15:00:13;;;;;;;;;;;27.30;64.80;;;;;;5065826;28;19928;-73
2022/05/12 15:02:45;;;;;;;;;;;27.10;64.90;;;;;;5061384;28;19937;-75
2022/05/12 15:05:17;;;;;;;;;;;27.10;65.40;;;;;;5060145;28;19925;-74
2022/05/12 15:07:49;;;;;;;;;;;26.90;66.30;;;;;;5053305;28;20385;-73
2022/05/12 15:10:21;;;;;;;;;;;26.70;68.60;;;;;;5069833;28;19967;-73
2022/05/12 15:12:53;;;;;;;;;;;26.70;68.90;;;;;;5068361;28;20471;-73
2022/05/12 15:15:24;;;;;;;;;;;26.90;67.30;;;;;;5051349;28;19967;-75
2022/05/12 15:17:56;;;;;;;;;;;26.90;67.00;;;;;;5056495;28;20274;-73
2022/05/12 15:20:29;;;;;;;;;;;26.90;67.70;;;;;;5065208;28;19931;-74
2022/05/12 15:23:01;;;;;;;;;;;26.80;67.80;;;;;;5063395;28;19928;-73
2022/05/12 15:25:33;;;;;;;;;;;26.90;68.40;;;;;;5058475;28;19931;-73